createdAt,value
2017-09-22T00:00:01.331Z,82.0
2017-09-22T00:01:02.061Z,88.8
2017-09-22T00:02:02.791Z,91.0
2017-09-22T00:03:03.515Z,92.8
2017-09-22T00:04:04.640Z,90.5
2017-09-22T00:05:05.381Z,87.3
2017-09-22T00:06:06.169Z,94.0
2017-09-22T00:07:06.999Z,88.1
2017-09-22T00:08:07.801Z,88.2
2017-09-22T00:09:08.999Z,85.6
2017-09-22T00:10:09.771Z,86.9
2017-09-22T00:11:10.506Z,87.9
2017-09-22T00:12:11.306Z,89.5
2017-09-22T00:13:12.041Z,87.8
2017-09-22T00:14:13.070Z,89.4
2017-09-22T00:15:13.786Z,87.4
2017-09-22T00:16:14.525Z,88.1
2017-09-22T00:17:15.286Z,86.7
2017-09-22T00:18:16.077Z,90.2
2017-09-22T00:19:17.111Z,89.3
2017-09-22T00:20:17.909Z,92.0
2017-09-22T00:21:18.649Z,88.8
2017-09-22T00:22:19.442Z,89.6
2017-09-22T00:23:20.156Z,91.9
2017-09-22T00:24:21.314Z,91.7
2017-09-22T00:25:22.045Z,96.4
2017-09-22T00:26:22.776Z,91.8
2017-09-22T00:27:23.529Z,95.2
2017-09-22T00:28:24.266Z,92.1
2017-09-22T00:29:25.432Z,91.2
2017-09-22T00:30:26.211Z,90.3
2017-09-22T00:31:26.946Z,94.7
2017-09-22T00:32:27.706Z,97.2
2017-09-22T00:33:28.505Z,97.1
2017-09-22T00:34:29.530Z,96.4
2017-09-22T00:35:30.272Z,90.1
2017-09-22T00:36:31.108Z,98.8
2017-09-22T00:37:31.833Z,94.5
2017-09-22T00:38:32.494Z,96.4
2017-09-22T00:39:33.521Z,96.2
2017-09-22T00:40:34.266Z,95.8
2017-09-22T00:41:35.025Z,92.9
2017-09-22T00:42:35.742Z,92.9
2017-09-22T00:43:36.466Z,92.8
2017-09-22T00:44:37.582Z,86.4
2017-09-22T00:45:38.304Z,94.1
2017-09-22T00:46:39.093Z,92.3
2017-09-22T00:47:39.894Z,92.0
2017-09-22T00:48:40.637Z,86.4
2017-09-22T00:49:41.687Z,89.8
2017-09-22T00:50:42.460Z,90.8
2017-09-22T00:51:43.194Z,85.8
2017-09-22T00:52:43.927Z,86.9
2017-09-22T00:53:44.645Z,88.3
2017-09-22T00:54:45.820Z,88.6
2017-09-22T00:55:46.546Z,90.1
2017-09-22T00:56:47.338Z,89.3
2017-09-22T00:57:48.085Z,89.3
2017-09-22T00:58:48.802Z,89.4
2017-09-22T00:59:49.952Z,90.5
2017-09-22T01:00:50.694Z,92.0
2017-09-22T01:01:51.428Z,96.3
2017-09-22T01:02:52.222Z,93.5
2017-09-22T01:03:53.031Z,95.9
2017-09-22T01:04:54.191Z,94.1
2017-09-22T01:05:54.935Z,96.4
2017-09-22T01:06:55.655Z,99.0
2017-09-22T01:07:56.455Z,99.2
2017-09-22T01:08:57.272Z,94.0
2017-09-22T01:09:58.045Z,96.3
2017-09-22T01:10:58.806Z,94.6
2017-09-22T01:11:59.525Z,102.2
2017-09-22T01:13:00.269Z,100.2
2017-09-22T01:14:01.056Z,94.8
2017-09-22T01:15:02.035Z,97.3
2017-09-22T01:16:02.765Z,98.0
2017-09-22T01:17:03.564Z,96.9
2017-09-22T01:18:04.333Z,92.3
2017-09-22T01:19:05.065Z,95.1
2017-09-22T01:20:06.022Z,95.4
2017-09-22T01:21:06.722Z,94.3
2017-09-22T01:22:07.535Z,94.5
2017-09-22T01:23:08.304Z,90.5
2017-09-22T01:24:09.021Z,96.1
2017-09-22T01:25:10.060Z,95.5
2017-09-22T01:26:10.782Z,92.0
2017-09-22T01:27:11.601Z,90.9
2017-09-22T01:28:12.332Z,93.9
2017-09-22T01:29:13.121Z,89.4
2017-09-22T01:30:14.194Z,96.4
2017-09-22T01:31:14.924Z,97.4
2017-09-22T01:32:15.651Z,96.9
2017-09-22T01:33:16.367Z,91.8
2017-09-22T01:34:17.101Z,99.5
2017-09-22T01:35:18.315Z,99.3
2017-09-22T01:36:19.055Z,98.4
2017-09-22T01:37:19.781Z,94.9
2017-09-22T01:38:20.516Z,99.4
2017-09-22T01:39:21.318Z,98.5
2017-09-22T01:40:22.354Z,98.1
2017-09-22T01:41:23.488Z,97.5
2017-09-22T01:42:24.161Z,100.2
2017-09-22T01:43:24.963Z,100.6
2017-09-22T01:44:25.756Z,95.8
2017-09-22T01:45:26.880Z,97.3
2017-09-22T01:46:27.600Z,102.2
2017-09-22T01:47:28.321Z,96.8
2017-09-22T01:48:29.050Z,92.1
2017-09-22T01:49:29.790Z,102.6
2017-09-22T01:50:30.718Z,103.5
2017-09-22T01:51:31.452Z,105.7
2017-09-22T01:52:32.252Z,100.9
2017-09-22T01:53:32.985Z,96.9
2017-09-22T01:54:33.701Z,101.4
2017-09-22T01:55:34.783Z,99.8
2017-09-22T01:56:35.554Z,99.7
2017-09-22T01:57:36.286Z,101.1
2017-09-22T01:58:37.024Z,97.0
2017-09-22T01:59:37.791Z,99.1
2017-09-22T02:00:38.810Z,101.3
2017-09-22T02:01:39.540Z,98.9
2017-09-22T02:02:40.262Z,100.2
2017-09-22T02:03:41.020Z,107.5
2017-09-22T02:04:41.781Z,103.0
2017-09-22T02:05:42.765Z,103.2
2017-09-22T02:06:43.491Z,108.9
2017-09-22T02:07:44.222Z,112.9
2017-09-22T02:08:44.949Z,108.4
2017-09-22T02:09:45.688Z,111.4
2017-09-22T02:10:46.688Z,112.9
2017-09-22T02:11:47.482Z,112.8
2017-09-22T02:12:48.215Z,107.1
2017-09-22T02:13:49.030Z,110.7
2017-09-22T02:14:49.797Z,112.1
2017-09-22T02:15:50.846Z,104.5
2017-09-22T02:16:51.598Z,113.1
2017-09-22T02:17:52.255Z,109.8
2017-09-22T02:18:53.054Z,108.4
2017-09-22T02:19:53.864Z,112.8
2017-09-22T02:20:54.890Z,106.9
2017-09-22T02:21:55.616Z,106.3
2017-09-22T02:22:56.340Z,103.3
2017-09-22T02:23:57.065Z,105.9
2017-09-22T02:24:57.865Z,105.0
2017-09-22T02:25:58.945Z,106.5
2017-09-22T02:26:59.679Z,104.0
2017-09-22T02:28:00.476Z,104.1
2017-09-22T02:29:01.210Z,106.3
2017-09-22T02:30:02.007Z,101.9
2017-09-22T02:31:02.825Z,106.5
2017-09-22T02:32:03.655Z,103.9
2017-09-22T02:33:04.405Z,104.9
2017-09-22T02:34:05.136Z,103.0
2017-09-22T02:35:05.865Z,101.3
2017-09-22T02:36:06.930Z,106.0
2017-09-22T02:37:07.654Z,107.4
2017-09-22T02:38:08.376Z,105.5
2017-09-22T02:39:09.091Z,104.1
2017-09-22T02:40:09.830Z,109.1
2017-09-22T02:41:10.605Z,99.2
2017-09-22T02:42:11.732Z,102.2
2017-09-22T02:43:12.542Z,101.6
2017-09-22T02:44:13.270Z,103.2
2017-09-22T02:45:13.997Z,100.4
2017-09-22T02:46:14.806Z,99.1
2017-09-22T02:47:15.532Z,97.9
2017-09-22T02:48:16.509Z,99.4
2017-09-22T02:49:17.314Z,96.6
2017-09-22T02:50:18.043Z,101.4
2017-09-22T02:51:18.794Z,102.7
2017-09-22T02:52:19.575Z,100.3
2017-09-22T02:53:20.651Z,103.9
2017-09-22T02:54:21.383Z,104.1
2017-09-22T02:55:22.164Z,109.7
2017-09-22T02:56:22.893Z,99.2
2017-09-22T02:57:23.628Z,101.5
2017-09-22T02:58:24.654Z,99.3
2017-09-22T02:59:25.392Z,108.6
2017-09-22T03:00:26.176Z,108.7
2017-09-22T03:01:26.919Z,107.3
2017-09-22T03:02:27.635Z,109.4
2017-09-22T03:03:28.785Z,111.0
2017-09-22T03:04:29.618Z,103.0
2017-09-22T03:05:30.391Z,109.2
2017-09-22T03:06:31.159Z,105.5
2017-09-22T03:07:31.969Z,107.0
2017-09-22T03:08:33.014Z,110.8
2017-09-22T03:09:33.789Z,104.9
2017-09-22T03:10:34.517Z,103.3
2017-09-22T03:11:35.248Z,105.7
2017-09-22T03:12:35.968Z,102.3
2017-09-22T03:13:36.700Z,103.4
2017-09-22T03:14:37.428Z,101.9
2017-09-22T03:15:38.172Z,107.8
2017-09-22T03:16:38.965Z,110.8
2017-09-22T03:17:39.698Z,113.9
2017-09-22T03:18:40.730Z,108.3
2017-09-22T03:19:41.430Z,109.6
2017-09-22T03:20:42.149Z,115.1
2017-09-22T03:21:42.875Z,116.5
2017-09-22T03:22:43.622Z,114.7
2017-09-22T03:23:44.590Z,114.6
2017-09-22T03:24:45.393Z,115.8
2017-09-22T03:25:46.109Z,113.8
2017-09-22T03:26:46.838Z,109.1
2017-09-22T03:27:47.560Z,109.4
2017-09-22T03:28:48.698Z,110.6
2017-09-22T03:29:49.537Z,122.2
2017-09-22T03:30:50.312Z,118.7
2017-09-22T03:31:51.074Z,118.5
2017-09-22T03:32:51.810Z,113.1
2017-09-22T03:33:52.798Z,118.4
2017-09-22T03:34:53.540Z,111.6
2017-09-22T03:35:54.271Z,121.0
2017-09-22T03:36:55.061Z,118.1
2017-09-22T03:37:55.868Z,117.5
2017-09-22T03:38:57.000Z,114.3
2017-09-22T03:39:57.790Z,108.6
2017-09-22T03:40:58.603Z,115.7
2017-09-22T03:41:59.338Z,115.0
2017-09-22T03:43:00.063Z,115.8
2017-09-22T03:44:01.001Z,115.4
2017-09-22T03:45:01.783Z,111.2
2017-09-22T03:46:02.514Z,111.3
2017-09-22T03:47:03.324Z,111.4
2017-09-22T03:48:04.057Z,116.6
2017-09-22T03:49:05.077Z,116.1
2017-09-22T03:50:05.808Z,115.6
2017-09-22T03:51:06.625Z,119.0
2017-09-22T03:52:07.414Z,116.8
2017-09-22T03:53:08.144Z,109.6
2017-09-22T03:54:08.936Z,113.0
2017-09-22T03:55:09.741Z,110.6
2017-09-22T03:56:10.774Z,115.4
2017-09-22T03:57:11.513Z,113.3
2017-09-22T03:58:12.277Z,114.6
2017-09-22T03:59:13.045Z,121.1
2017-09-22T04:00:13.858Z,110.5
2017-09-22T04:01:14.960Z,109.6
2017-09-22T04:02:15.682Z,116.0
2017-09-22T04:03:16.413Z,109.6
2017-09-22T04:04:17.223Z,113.8
2017-09-22T04:05:17.954Z,113.8
2017-09-22T04:06:19.153Z,109.2
2017-09-22T04:07:19.883Z,109.3
2017-09-22T04:08:20.613Z,110.6
2017-09-22T04:09:21.342Z,111.1
2017-09-22T04:10:22.080Z,105.7
2017-09-22T04:11:23.194Z,104.4
2017-09-22T04:12:23.963Z,103.4
2017-09-22T04:13:24.734Z,103.3
2017-09-22T04:14:25.464Z,107.1
2017-09-22T04:15:26.194Z,103.9
2017-09-22T04:16:27.391Z,108.8
2017-09-22T04:17:28.163Z,106.2
2017-09-22T04:18:28.888Z,107.6
2017-09-22T04:19:29.622Z,110.5
2017-09-22T04:20:30.352Z,108.9
2017-09-22T04:21:31.475Z,110.5
2017-09-22T04:22:32.204Z,114.4
2017-09-22T04:23:32.938Z,110.7
2017-09-22T04:24:33.718Z,107.5
2017-09-22T04:25:34.534Z,107.0
2017-09-22T04:26:35.755Z,110.5
2017-09-22T04:27:36.535Z,111.6
2017-09-22T04:28:37.334Z,104.8
2017-09-22T04:29:38.056Z,111.1
2017-09-22T04:30:38.802Z,109.8
2017-09-22T04:31:39.988Z,104.2
2017-09-22T04:32:40.712Z,108.5
2017-09-22T04:33:41.442Z,111.9
2017-09-22T04:34:42.176Z,114.1
2017-09-22T04:35:42.910Z,109.1
2017-09-22T04:36:43.681Z,113.0
2017-09-22T04:37:44.821Z,106.8
2017-09-22T04:38:45.612Z,116.4
2017-09-22T04:39:46.359Z,109.4
2017-09-22T04:40:47.091Z,111.7
2017-09-22T04:41:47.922Z,110.1
2017-09-22T04:42:48.914Z,110.5
2017-09-22T04:43:49.644Z,110.0
2017-09-22T04:44:50.454Z,113.1
2017-09-22T04:45:51.269Z,115.6
2017-09-22T04:46:52.044Z,119.9
2017-09-22T04:47:53.138Z,113.4
2017-09-22T04:48:53.883Z,112.1
2017-09-22T04:49:54.621Z,109.9
2017-09-22T04:50:55.352Z,107.7
2017-09-22T04:51:56.088Z,112.1
2017-09-22T04:52:57.223Z,109.5
2017-09-22T04:53:58.032Z,111.9
2017-09-22T04:54:58.794Z,109.8
2017-09-22T04:55:59.562Z,115.5
2017-09-22T04:57:00.304Z,112.7
2017-09-22T04:58:03.067Z,112.7
2017-09-22T04:59:03.713Z,110.2
2017-09-22T05:00:04.529Z,110.4
2017-09-22T05:01:05.262Z,111.3
2017-09-22T05:02:06.012Z,109.5
2017-09-22T05:03:07.141Z,114.1
2017-09-22T05:04:07.881Z,106.5
2017-09-22T05:05:08.985Z,120.2
2017-09-22T05:06:09.722Z,114.8
2017-09-22T05:07:10.400Z,116.6
2017-09-22T05:08:11.522Z,115.5
2017-09-22T05:09:12.262Z,112.5
2017-09-22T05:10:13.003Z,116.8
2017-09-22T05:11:13.726Z,114.6
2017-09-22T05:12:14.473Z,118.1
2017-09-22T05:13:15.201Z,114.6
2017-09-22T05:14:16.012Z,110.3
2017-09-22T05:15:16.825Z,117.0
2017-09-22T05:16:17.628Z,116.4
2017-09-22T05:17:18.353Z,117.4
2017-09-22T05:18:19.292Z,115.1
2017-09-22T05:19:20.032Z,123.3
2017-09-22T05:20:20.772Z,118.9
2017-09-22T05:21:21.516Z,128.0
2017-09-22T05:22:22.254Z,118.5
2017-09-22T05:23:23.474Z,124.7
2017-09-22T05:24:24.238Z,125.8
2017-09-22T05:25:25.043Z,127.9
2017-09-22T05:26:25.772Z,121.8
2017-09-22T05:27:26.507Z,120.3
2017-09-22T05:28:27.712Z,123.1
2017-09-22T05:29:28.444Z,120.0
2017-09-22T05:30:29.264Z,132.8
2017-09-22T05:31:30.075Z,124.4
2017-09-22T05:32:30.862Z,121.5
2017-09-22T05:33:31.983Z,117.3
2017-09-22T05:34:32.715Z,121.8
2017-09-22T05:35:33.549Z,119.8
2017-09-22T05:36:34.283Z,123.5
2017-09-22T05:37:35.057Z,121.0
2017-09-22T05:38:36.011Z,117.5
2017-09-22T05:39:36.742Z,122.7
2017-09-22T05:40:37.482Z,119.4
2017-09-22T05:41:38.229Z,116.3
2017-09-22T05:42:38.964Z,121.1
2017-09-22T05:43:39.765Z,121.5
2017-09-22T05:44:40.577Z,121.7
2017-09-22T05:45:41.636Z,119.4
2017-09-22T05:46:42.403Z,124.0
2017-09-22T05:47:43.147Z,133.1
2017-09-22T05:48:43.944Z,133.4
2017-09-22T05:49:44.696Z,126.9
2017-09-22T05:50:45.473Z,125.8
2017-09-22T05:51:46.217Z,119.2
2017-09-22T05:52:47.012Z,122.6
2017-09-22T05:53:47.755Z,121.6
2017-09-22T05:54:48.553Z,123.6
2017-09-22T05:55:49.605Z,121.0
2017-09-22T05:56:50.283Z,122.0
2017-09-22T05:57:51.027Z,122.9
2017-09-22T05:58:51.749Z,122.0
2017-09-22T05:59:52.569Z,121.8
2017-09-22T06:00:53.682Z,120.3
2017-09-22T06:01:54.453Z,127.8
2017-09-22T06:02:55.209Z,124.0
2017-09-22T06:03:56.007Z,120.9
2017-09-22T06:04:56.733Z,118.9
2017-09-22T06:05:57.774Z,130.2
2017-09-22T06:06:58.572Z,122.4
2017-09-22T06:07:59.303Z,128.9
2017-09-22T06:09:00.036Z,130.8
2017-09-22T06:10:00.834Z,124.0
2017-09-22T06:11:01.963Z,120.6
2017-09-22T06:12:02.698Z,115.5
2017-09-22T06:13:03.464Z,115.4
2017-09-22T06:14:04.192Z,124.9
2017-09-22T06:15:04.914Z,125.7
2017-09-22T06:16:06.003Z,116.4
2017-09-22T06:17:06.739Z,119.8
2017-09-22T06:18:07.472Z,123.4
2017-09-22T06:19:08.218Z,114.4
2017-09-22T06:20:09.026Z,111.7
2017-09-22T06:21:10.537Z,122.2
2017-09-22T06:22:11.285Z,120.5
2017-09-22T06:23:12.077Z,115.3
2017-09-22T06:24:12.867Z,112.8
2017-09-22T06:25:13.677Z,116.6
2017-09-22T06:26:14.763Z,114.8
2017-09-22T06:27:15.502Z,115.2
2017-09-22T06:28:16.243Z,120.8
2017-09-22T06:29:17.050Z,115.6
2017-09-22T06:30:17.793Z,111.3
2017-09-22T06:31:18.934Z,115.0
2017-09-22T06:32:19.757Z,113.0
2017-09-22T06:33:20.513Z,116.4
2017-09-22T06:34:21.238Z,121.6
2017-09-22T06:35:21.968Z,118.0
2017-09-22T06:36:22.720Z,124.8
2017-09-22T06:37:23.421Z,121.0
2017-09-22T06:38:24.154Z,120.2
2017-09-22T06:39:25.128Z,120.2
2017-09-22T06:40:25.874Z,119.5
2017-09-22T06:41:26.663Z,126.4
2017-09-22T06:42:27.407Z,123.3
2017-09-22T06:43:28.191Z,119.1
2017-09-22T06:44:29.337Z,122.0
2017-09-22T06:45:30.112Z,119.9
2017-09-22T06:46:30.881Z,118.4
2017-09-22T06:47:31.689Z,121.4
2017-09-22T06:48:32.362Z,115.5
2017-09-22T06:49:33.466Z,117.1
2017-09-22T06:50:34.233Z,114.3
2017-09-22T06:51:35.058Z,115.5
2017-09-22T06:52:35.857Z,113.7
2017-09-22T06:53:37.607Z,116.7
2017-09-22T06:54:39.249Z,110.4
2017-09-22T06:55:41.293Z,113.9
2017-09-22T06:56:42.204Z,116.5
2017-09-22T06:57:42.953Z,116.0
2017-09-22T06:58:43.750Z,111.6
2017-09-22T06:59:44.545Z,116.0
2017-09-22T07:00:45.335Z,112.3
2017-09-22T07:01:46.566Z,110.1
2017-09-22T07:02:47.303Z,113.1
2017-09-22T07:03:48.031Z,117.8
2017-09-22T07:04:48.772Z,118.3
2017-09-22T07:05:49.514Z,116.4
2017-09-22T07:06:50.504Z,114.8
2017-09-22T07:07:51.359Z,118.9
2017-09-22T07:08:52.116Z,116.7
2017-09-22T07:09:52.924Z,117.7
2017-09-22T07:10:53.673Z,119.0
2017-09-22T07:11:54.715Z,111.0
2017-09-22T07:12:55.427Z,112.8
2017-09-22T07:13:56.280Z,110.1
2017-09-22T07:14:56.992Z,105.3
2017-09-22T07:15:57.773Z,113.1
2017-09-22T07:16:59.001Z,104.4
2017-09-22T07:17:59.816Z,113.8
2017-09-22T07:19:00.641Z,106.7
2017-09-22T07:20:01.453Z,106.6
2017-09-22T07:21:02.198Z,104.3
2017-09-22T07:22:03.382Z,98.7
2017-09-22T07:23:04.157Z,99.4
2017-09-22T07:24:04.955Z,94.1
2017-09-22T07:25:05.773Z,93.0
2017-09-22T07:26:06.510Z,94.6
2017-09-22T07:27:07.664Z,94.5
2017-09-22T07:28:08.498Z,95.5
2017-09-22T07:29:09.284Z,97.2
2017-09-22T07:30:10.020Z,97.5
2017-09-22T07:31:10.754Z,95.8
2017-09-22T07:32:11.896Z,91.0
2017-09-22T07:33:12.698Z,88.4
2017-09-22T07:34:13.442Z,89.9
2017-09-22T07:35:14.224Z,89.1
2017-09-22T07:36:14.964Z,84.5
2017-09-22T07:37:16.053Z,83.0
2017-09-22T07:38:16.787Z,87.1
2017-09-22T07:39:17.524Z,79.7
2017-09-22T07:40:18.339Z,81.1
2017-09-22T07:41:19.138Z,77.9
2017-09-22T07:42:20.342Z,78.7
2017-09-22T07:43:21.091Z,73.7
2017-09-22T07:44:21.824Z,77.1
2017-09-22T07:45:22.554Z,73.5
2017-09-22T07:46:23.288Z,73.7
2017-09-22T07:47:24.030Z,71.0
2017-09-22T07:48:24.768Z,71.3
2017-09-22T07:49:25.814Z,72.1
2017-09-22T07:50:26.623Z,68.5
2017-09-22T07:51:27.433Z,65.5
2017-09-22T07:52:28.182Z,63.6
2017-09-22T07:53:28.920Z,62.9
2017-09-22T07:54:29.668Z,61.5
2017-09-22T07:55:30.736Z,60.9
2017-09-22T07:56:31.473Z,62.0
2017-09-22T07:57:32.217Z,56.5
2017-09-22T07:58:32.950Z,56.0
2017-09-22T07:59:33.761Z,57.2
2017-09-22T08:00:34.750Z,53.7
2017-09-22T08:01:35.490Z,53.9
2017-09-22T08:02:36.229Z,50.4
2017-09-22T08:03:37.033Z,52.6
2017-09-22T08:04:37.772Z,52.1
2017-09-22T08:05:38.867Z,50.2
2017-09-22T08:06:39.542Z,49.0
2017-09-22T08:07:40.285Z,49.6
2017-09-22T08:08:41.023Z,47.6
2017-09-22T08:09:41.804Z,48.2
2017-09-22T08:10:42.794Z,45.0
2017-09-22T08:11:43.599Z,41.8
2017-09-22T08:12:44.333Z,40.3
2017-09-22T08:13:45.088Z,40.6
2017-09-22T08:14:45.888Z,38.6
2017-09-22T08:15:47.074Z,37.0
2017-09-22T08:16:47.817Z,37.4
2017-09-22T08:17:48.561Z,34.3
2017-09-22T08:18:49.334Z,33.5
2017-09-22T08:19:50.071Z,37.3
2017-09-22T08:20:51.124Z,40.8
2017-09-22T08:21:51.904Z,38.9
2017-09-22T08:22:52.643Z,38.9
2017-09-22T08:23:53.380Z,38.1
2017-09-22T08:24:54.115Z,38.7
2017-09-22T08:25:55.223Z,40.4
2017-09-22T08:26:55.965Z,37.3
2017-09-22T08:27:56.693Z,36.5
2017-09-22T08:28:57.433Z,35.0
2017-09-22T08:29:58.236Z,34.8
2017-09-22T08:30:59.374Z,34.7
2017-09-22T08:32:00.116Z,31.8
2017-09-22T08:33:00.911Z,30.7
2017-09-22T08:34:01.644Z,28.8
2017-09-22T08:35:02.465Z,31.2
2017-09-22T08:36:03.682Z,27.8
2017-09-22T08:37:05.182Z,23.5
2017-09-22T08:38:06.427Z,20.8
2017-09-22T08:39:07.732Z,18.7
2017-09-22T08:40:08.689Z,17.1
2017-09-22T08:41:09.706Z,17.0
2017-09-22T08:42:10.515Z,16.8
2017-09-22T08:43:11.253Z,16.3
2017-09-22T08:44:11.992Z,16.8
2017-09-22T08:45:12.793Z,18.4
2017-09-22T08:46:13.788Z,18.7
2017-09-22T08:47:14.576Z,17.7
2017-09-22T08:48:15.317Z,17.4
2017-09-22T08:49:16.114Z,18.0
2017-09-22T08:50:16.864Z,17.7
2017-09-22T08:51:17.899Z,17.8
2017-09-22T08:52:18.644Z,17.1
2017-09-22T08:53:19.388Z,17.6
2017-09-22T08:54:20.163Z,19.1
2017-09-22T08:55:20.914Z,18.2
2017-09-22T08:56:21.853Z,17.6
2017-09-22T08:57:22.601Z,17.3
2017-09-22T08:58:23.422Z,16.6
2017-09-22T08:59:24.188Z,17.4
2017-09-22T09:00:25.009Z,17.8
2017-09-22T09:01:26.258Z,17.7
2017-09-22T09:02:27.086Z,20.0
2017-09-22T09:03:27.887Z,18.5
2017-09-22T09:04:28.689Z,19.2
2017-09-22T09:05:29.489Z,18.3
2017-09-22T09:06:30.299Z,19.4
2017-09-22T09:07:31.116Z,17.8
2017-09-22T09:08:31.902Z,17.1
2017-09-22T09:09:32.634Z,18.1
2017-09-22T09:10:33.782Z,18.1
2017-09-22T09:11:34.526Z,15.7
2017-09-22T09:12:35.336Z,15.5
2017-09-22T09:13:36.172Z,15.4
2017-09-22T09:14:36.968Z,16.1
2017-09-22T09:15:38.112Z,15.7
2017-09-22T09:16:38.854Z,15.8
2017-09-22T09:17:39.604Z,15.8
2017-09-22T09:18:40.420Z,14.8
2017-09-22T09:19:41.227Z,14.8
2017-09-22T09:20:42.033Z,13.8
2017-09-22T09:21:42.773Z,15.7
2017-09-22T09:22:43.929Z,14.9
2017-09-22T09:23:44.676Z,17.3
2017-09-22T09:24:45.428Z,15.7
2017-09-22T09:25:46.214Z,18.6
2017-09-22T09:26:48.364Z,17.9
2017-09-22T09:27:50.609Z,17.7
2017-09-22T09:28:51.942Z,16.9
2017-09-22T09:29:52.672Z,19.2
2017-09-22T09:30:53.474Z,20.4
2017-09-22T09:31:54.215Z,20.9
2017-09-22T09:32:55.037Z,21.3
2017-09-22T09:33:56.085Z,21.0
2017-09-22T09:34:56.891Z,21.6
2017-09-22T09:35:57.708Z,19.9
2017-09-22T09:36:58.516Z,19.0
2017-09-22T09:37:59.258Z,19.6
2017-09-22T09:39:00.064Z,18.5
2017-09-22T09:40:00.808Z,18.6
2017-09-22T09:41:01.674Z,19.0
2017-09-22T09:42:02.409Z,18.0
2017-09-22T09:43:03.154Z,17.2
2017-09-22T09:44:04.208Z,18.6
2017-09-22T09:45:05.015Z,18.6
2017-09-22T09:46:05.760Z,17.4
2017-09-22T09:47:06.515Z,17.2
2017-09-22T09:48:07.335Z,18.9
2017-09-22T09:49:08.072Z,16.6
2017-09-22T09:50:09.075Z,16.8
2017-09-22T09:51:09.854Z,16.8
2017-09-22T09:52:10.626Z,17.2
2017-09-22T09:53:11.445Z,18.4
2017-09-22T09:54:12.247Z,18.0
2017-09-22T09:55:12.984Z,18.5
2017-09-22T09:56:14.025Z,18.2
2017-09-22T09:57:14.785Z,20.4
2017-09-22T09:58:15.938Z,18.3
2017-09-22T09:59:16.767Z,17.6
2017-09-22T10:00:17.484Z,18.6
2017-09-22T10:01:18.243Z,19.2
2017-09-22T10:02:19.049Z,19.4
2017-09-22T10:03:20.194Z,17.9
2017-09-22T10:04:21.684Z,18.5
2017-09-22T10:05:22.595Z,18.6
2017-09-22T10:06:23.414Z,19.5
2017-09-22T10:07:24.153Z,18.9
2017-09-22T10:08:25.293Z,16.9
2017-09-22T10:09:26.033Z,17.0
2017-09-22T10:10:26.853Z,16.6
2017-09-22T10:11:27.599Z,17.8
2017-09-22T10:12:28.374Z,17.3
2017-09-22T10:13:29.212Z,19.3
2017-09-22T10:14:30.191Z,18.8
2017-09-22T10:15:31.027Z,19.0
2017-09-22T10:16:31.813Z,18.6
2017-09-22T10:17:32.623Z,18.0
2017-09-22T10:18:33.353Z,17.8
2017-09-22T10:19:34.094Z,18.3
2017-09-22T10:20:34.848Z,18.4
2017-09-22T10:21:35.625Z,17.7
2017-09-22T10:22:36.367Z,16.7
2017-09-22T10:23:37.117Z,18.4
2017-09-22T10:24:37.933Z,17.1
2017-09-22T10:25:38.679Z,17.5
2017-09-22T10:26:39.781Z,16.5
2017-09-22T10:27:40.532Z,15.9
2017-09-22T10:28:41.274Z,16.4
2017-09-22T10:29:42.013Z,18.0
2017-09-22T10:30:42.781Z,17.5
2017-09-22T10:31:43.846Z,17.5
2017-09-22T10:32:44.651Z,17.6
2017-09-22T10:33:45.475Z,17.7
2017-09-22T10:34:46.222Z,16.5
2017-09-22T10:35:46.957Z,17.3
2017-09-22T10:36:48.098Z,17.5
2017-09-22T10:37:48.918Z,17.5
2017-09-22T10:38:49.674Z,17.6
2017-09-22T10:39:50.413Z,18.0
2017-09-22T10:40:51.153Z,17.2
2017-09-22T10:41:52.109Z,17.8
2017-09-22T10:42:52.914Z,17.7
2017-09-22T10:43:53.733Z,18.3
2017-09-22T10:44:54.473Z,19.0
2017-09-22T10:45:55.213Z,17.8
2017-09-22T10:46:56.308Z,17.1
2017-09-22T10:47:57.139Z,17.1
2017-09-22T10:48:57.877Z,16.6
2017-09-22T10:49:58.617Z,16.6
2017-09-22T10:50:59.362Z,16.8
2017-09-22T10:52:00.562Z,16.3
2017-09-22T10:53:01.297Z,15.9
2017-09-22T10:54:02.126Z,16.1
2017-09-22T10:55:02.908Z,14.8
2017-09-22T10:56:03.700Z,14.8
2017-09-22T10:57:04.453Z,16.2
2017-09-22T10:58:05.195Z,15.7
2017-09-22T10:59:06.402Z,15.6
2017-09-22T11:00:07.137Z,13.9
2017-09-22T11:01:07.885Z,13.8
2017-09-22T11:02:08.677Z,13.5
2017-09-22T11:03:09.458Z,12.1
2017-09-22T11:04:10.600Z,11.6
2017-09-22T11:05:11.386Z,10.6
2017-09-22T11:06:12.182Z,10.7
2017-09-22T11:07:12.924Z,10.3
2017-09-22T11:08:13.746Z,11.1
2017-09-22T11:09:14.887Z,11.1
2017-09-22T11:10:15.693Z,10.4
2017-09-22T11:11:16.428Z,11.0
2017-09-22T11:12:17.163Z,11.4
2017-09-22T11:13:17.904Z,10.7
2017-09-22T11:14:19.044Z,10.9
2017-09-22T11:15:19.793Z,10.9
2017-09-22T11:16:20.617Z,9.5
2017-09-22T11:17:21.423Z,10.6
2017-09-22T11:18:22.162Z,11.7
2017-09-22T11:19:23.151Z,12.4
2017-09-22T11:20:23.892Z,12.8
2017-09-22T11:21:24.636Z,12.2
2017-09-22T11:22:25.385Z,12.7
2017-09-22T11:23:26.196Z,12.8
2017-09-22T11:24:27.194Z,14.3
2017-09-22T11:25:27.935Z,12.6
2017-09-22T11:26:28.748Z,13.7
2017-09-22T11:27:29.492Z,12.7
2017-09-22T11:28:30.241Z,12.9
2017-09-22T11:29:31.233Z,12.2
2017-09-22T11:30:31.978Z,12.9
2017-09-22T11:31:32.723Z,12.4
2017-09-22T11:32:33.468Z,12.0
2017-09-22T11:33:34.208Z,13.1
2017-09-22T11:34:34.953Z,11.2
2017-09-22T11:35:35.702Z,11.6
2017-09-22T11:36:36.452Z,10.3
2017-09-22T11:37:37.192Z,10.9
2017-09-22T11:38:37.932Z,10.8
2017-09-22T11:39:38.976Z,10.8
2017-09-22T11:40:39.790Z,9.8
2017-09-22T11:41:40.582Z,9.6
2017-09-22T11:42:41.328Z,8.8
2017-09-22T11:43:42.139Z,9.2
2017-09-22T11:44:43.084Z,9.0
2017-09-22T11:45:43.893Z,8.3
2017-09-22T11:46:44.647Z,8.6
2017-09-22T11:47:45.447Z,8.7
2017-09-22T11:48:46.190Z,10.6
2017-09-22T11:49:47.270Z,10.3
2017-09-22T11:50:48.018Z,9.9
2017-09-22T11:51:48.826Z,9.0
2017-09-22T11:52:49.628Z,10.0
2017-09-22T11:53:50.357Z,11.1
2017-09-22T11:54:51.434Z,10.6
2017-09-22T11:55:52.246Z,10.2
2017-09-22T11:56:52.943Z,10.3
2017-09-22T11:57:53.756Z,9.6
2017-09-22T11:58:54.512Z,9.7
2017-09-22T11:59:55.663Z,9.0
2017-09-22T12:00:56.493Z,9.1
2017-09-22T12:01:57.245Z,8.9
2017-09-22T12:02:58.040Z,9.6
2017-09-22T12:03:58.841Z,8.9
2017-09-22T12:05:00.155Z,9.0
2017-09-22T12:06:00.925Z,9.3
2017-09-22T12:07:01.656Z,8.9
2017-09-22T12:08:02.402Z,10.0
2017-09-22T12:09:03.226Z,10.5
2017-09-22T12:10:03.983Z,10.0
2017-09-22T12:11:04.729Z,11.4
2017-09-22T12:12:05.970Z,10.9
2017-09-22T12:13:06.747Z,11.1
2017-09-22T12:14:07.494Z,10.0
2017-09-22T12:15:08.305Z,10.2
2017-09-22T12:16:09.098Z,8.9
2017-09-22T12:17:10.126Z,8.7
2017-09-22T12:18:10.861Z,9.7
2017-09-22T12:19:11.612Z,8.4
2017-09-22T12:20:12.347Z,8.3
2017-09-22T12:21:13.092Z,8.1
2017-09-22T12:22:14.263Z,7.8
2017-09-22T12:23:15.025Z,7.1
2017-09-22T12:24:15.780Z,6.7
2017-09-22T12:25:16.576Z,5.8
2017-09-22T12:26:17.414Z,6.4
2017-09-22T12:27:18.223Z,5.8
2017-09-22T12:28:18.975Z,5.1
2017-09-22T12:29:19.777Z,4.7
2017-09-22T12:30:20.521Z,5.1
2017-09-22T12:31:21.562Z,5.3
2017-09-22T12:32:22.303Z,5.5
2017-09-22T12:33:23.052Z,6.1
2017-09-22T12:34:23.797Z,4.3
2017-09-22T12:35:24.658Z,5.1
2017-09-22T12:36:25.866Z,5.6
2017-09-22T12:37:26.609Z,6.5
2017-09-22T12:38:27.403Z,7.0
2017-09-22T12:39:28.144Z,7.6
2017-09-22T12:40:28.897Z,9.3
2017-09-22T12:41:29.643Z,9.9
2017-09-22T12:42:30.783Z,8.6
2017-09-22T12:43:31.529Z,6.4
2017-09-22T12:44:32.342Z,6.1
2017-09-22T12:45:33.098Z,5.9
2017-09-22T12:46:33.906Z,6.6
2017-09-22T12:47:34.849Z,8.6
2017-09-22T12:48:35.596Z,9.5
2017-09-22T12:49:36.340Z,8.3
2017-09-22T12:50:37.098Z,7.8
2017-09-22T12:51:37.893Z,7.7
2017-09-22T12:52:38.834Z,9.3
2017-09-22T12:53:39.578Z,11.4
2017-09-22T12:54:40.393Z,9.2
2017-09-22T12:55:41.134Z,10.6
2017-09-22T12:56:41.966Z,10.8
2017-09-22T12:57:43.064Z,11.6
2017-09-22T12:58:43.813Z,10.7
2017-09-22T12:59:44.598Z,11.7
2017-09-22T13:00:45.409Z,10.9
2017-09-22T13:01:46.203Z,11.6
2017-09-22T13:02:47.353Z,11.8
2017-09-22T13:03:48.093Z,12.6
2017-09-22T13:04:48.848Z,13.1
2017-09-22T13:05:49.640Z,11.5
2017-09-22T13:06:50.383Z,11.2
2017-09-22T13:07:51.386Z,10.9
2017-09-22T13:08:52.139Z,11.1
2017-09-22T13:09:52.945Z,12.5
2017-09-22T13:10:53.763Z,12.9
2017-09-22T13:11:54.513Z,13.1
2017-09-22T13:12:55.663Z,11.3
2017-09-22T13:13:56.403Z,11.9
2017-09-22T13:14:57.153Z,13.0
2017-09-22T13:15:57.960Z,11.8
2017-09-22T13:16:58.716Z,9.1
2017-09-22T13:17:59.763Z,9.4
2017-09-22T13:19:00.523Z,10.6
2017-09-22T13:20:01.292Z,10.9